Time;durP1;ratioP1;P1;durP2;ratioP2;P2;SDS_P1;SDS_P2;PMS_P1;PMS_P2;Temp;Humidity;BMP_temperature;BMP_pressure;BME280_temperature;BME280_humidity;BME280_pressure;Samples;Min_cycle;Max_cycle;Signal;HPM_P1;HPM_P2
2021/10/29 00:01:12;;;;;;;6.22;3.83;;;;;;;;;;4976520;28;20042;-77
2021/10/29 00:03:43;;;;;;;7.38;3.92;;;;;;;;;;4993282;28;20046;-77
2021/10/29 00:06:11;;;;;;;8.38;4.10;;;;;;;;;;4993673;28;20125;-77
2021/10/29 00:08:39;;;;;;;8.02;4.20;;;;;;;;;;4992858;28;20406;-77
2021/10/29 00:11:09;;;;;;;5.53;3.85;;;;;;;;;;4974169;28;20125;-74
2021/10/29 00:13:36;;;;;;;8.00;4.60;;;;;;;;;;4993212;28;20050;-76
2021/10/29 00:16:05;;;;;;;10.13;4.43;;;;;;;;;;4997319;28;20049;-76
2021/10/29 00:18:33;;;;;;;7.60;4.40;;;;;;;;;;4997004;28;20047;-73
2021/10/29 00:21:01;;;;;;;12.80;4.60;;;;;;;;;;4979617;28;20399;-75
2021/10/29 00:23:30;;;;;;;6.88;4.50;;;;;;;;;;4996955;28;20049;-73
2021/10/29 00:26:02;;;;;;;7.40;4.43;;;;;;;;;;4996949;28;20050;-74
2021/10/29 00:28:29;;;;;;;8.73;4.80;;;;;;;;;;4963124;28;20373;-76
2021/10/29 00:30:57;;;;;;;8.52;5.18;;;;;;;;;;4996458;28;20447;-73
2021/10/29 00:33:26;;;;;;;11.60;5.30;;;;;;;;;;4996688;28;20398;-73
2021/10/29 00:35:53;;;;;;;11.77;6.05;;;;;;;;;;4979557;28;20030;-76
2021/10/29 00:38:22;;;;;;;10.25;5.68;;;;;;;;;;4979547;28;20057;-74
2021/10/29 00:40:51;;;;;;;15.85;6.55;;;;;;;;;;4979200;28;20073;-74
2021/10/29 00:43:19;;;;;;;16.70;7.15;;;;;;;;;;4996663;28;20093;-75
2021/10/29 00:45:49;;;;;;;19.00;8.20;;;;;;;;;;4979037;28;20062;-75
2021/10/29 00:48:20;;;;;;;19.00;8.32;;;;;;;;;;4979455;28;20487;-75
2021/10/29 00:50:47;;;;;;;18.35;8.60;;;;;;;;;;4996173;28;20045;-75
2021/10/29 00:53:15;;;;;;;19.10;9.55;;;;;;;;;;4996340;28;20042;-74
2021/10/29 00:55:43;;;;;;;16.95;9.32;;;;;;;;;;4996364;28;20042;-74
2021/10/29 00:58:14;;;;;;;15.20;9.65;;;;;;;;;;4996401;28;20044;-73
2021/10/29 01:00:41;;;;;;;15.43;9.43;;;;;;;;;;4996328;28;20042;-74
2021/10/29 01:03:12;;;;;;;23.15;9.30;;;;;;;;;;4979297;28;20035;-74
2021/10/29 01:05:40;;;;;;;25.38;9.85;;;;;;;;;;4996403;28;20038;-73
2021/10/29 01:08:10;;;;;;;18.33;9.73;;;;;;;;;;4978413;28;20042;-76
2021/10/29 01:10:38;;;;;;;14.25;9.45;;;;;;;;;;4992612;28;20049;-77
2021/10/29 01:13:07;;;;;;;14.95;9.18;;;;;;;;;;4977655;28;20065;-77
2021/10/29 01:15:36;;;;;;;15.48;9.95;;;;;;;;;;4995085;28;20069;-74
2021/10/29 01:18:05;;;;;;;20.13;10.40;;;;;;;;;;4995254;28;20043;-73
2021/10/29 01:20:32;;;;;;;20.15;9.70;;;;;;;;;;4978867;28;20435;-74
2021/10/29 01:23:00;;;;;;;19.02;9.98;;;;;;;;;;4995923;28;20476;-77
2021/10/29 01:25:29;;;;;;;17.58;9.25;;;;;;;;;;4995716;28;20056;-74
2021/10/29 01:27:56;;;;;;;15.23;9.38;;;;;;;;;;4994461;28;20042;-77
2021/10/29 01:30:27;;;;;;;13.32;10.10;;;;;;;;;;4984751;28;20484;-77
2021/10/29 01:32:56;;;;;;;16.05;9.25;;;;;;;;;;4958799;28;20496;-77
2021/10/29 01:35:27;;;;;;;16.02;9.52;;;;;;;;;;4959222;28;20102;-74
2021/10/29 01:37:56;;;;;;;20.33;10.05;;;;;;;;;;4958693;28;20046;-74
2021/10/29 01:40:25;;;;;;;21.20;10.30;;;;;;;;;;4976246;28;20105;-77
2021/10/29 01:42:53;;;;;;;13.68;10.40;;;;;;;;;;4976103;28;20484;-77
2021/10/29 01:45:21;;;;;;;12.73;9.23;;;;;;;;;;4975246;28;20050;-77
2021/10/29 01:47:50;;;;;;;16.58;9.65;;;;;;;;;;4958030;28;20039;-76
2021/10/29 01:50:18;;;;;;;15.70;10.02;;;;;;;;;;4958680;28;20094;-74
2021/10/29 01:52:47;;;;;;;17.05;9.98;;;;;;;;;;4975835;28;20039;-77
2021/10/29 01:55:16;;;;;;;13.18;9.63;;;;;;;;;;4958660;28;20039;-74
2021/10/29 01:57:45;;;;;;;15.88;10.02;;;;;;;;;;4975862;28;20126;-77
2021/10/29 02:00:13;;;;;;;14.38;9.93;;;;;;;;;;4975622;28;20038;-74
2021/10/29 02:02:41;;;;;;;14.80;10.27;;;;;;;;;;4958273;28;20038;-74
2021/10/29 02:05:11;;;;;;;17.33;9.55;;;;;;;;;;4958526;28;20121;-77
2021/10/29 02:07:38;;;;;;;16.10;9.95;;;;;;;;;;4975524;28;20158;-77
2021/10/29 02:10:08;;;;;;;15.15;10.00;;;;;;;;;;4975524;28;20412;-77
2021/10/29 02:12:35;;;;;;;17.58;10.48;;;;;;;;;;4957930;28;20043;-76
2021/10/29 02:15:03;;;;;;;18.25;9.73;;;;;;;;;;4975320;28;20061;-76
2021/10/29 02:17:31;;;;;;;18.02;9.68;;;;;;;;;;4957962;28;20051;-77
2021/10/29 02:20:01;;;;;;;11.55;8.75;;;;;;;;;;4975076;28;20043;-74
2021/10/29 02:22:28;;;;;;;13.57;8.43;;;;;;;;;;4975746;28;20051;-74
2021/10/29 02:24:56;;;;;;;13.15;8.80;;;;;;;;;;4963713;28;20046;-76
2021/10/29 02:27:25;;;;;;;11.32;8.23;;;;;;;;;;4974128;28;20047;-76
2021/10/29 02:29:52;;;;;;;10.75;9.00;;;;;;;;;;4975292;28;20441;-74
2021/10/29 02:32:21;;;;;;;13.43;9.55;;;;;;;;;;4975149;28;20449;-77
2021/10/29 02:34:49;;;;;;;12.80;9.18;;;;;;;;;;4974606;28;20441;-74
2021/10/29 02:37:17;;;;;;;16.10;10.35;;;;;;;;;;4975231;28;20141;-77
2021/10/29 02:39:46;;;;;;;15.60;10.13;;;;;;;;;;4974091;28;20051;-74
2021/10/29 02:42:13;;;;;;;13.57;10.02;;;;;;;;;;4975320;28;20043;-74
2021/10/29 02:44:42;;;;;;;16.42;10.90;;;;;;;;;;4973777;28;20169;-76
2021/10/29 02:47:11;;;;;;;19.60;10.75;;;;;;;;;;4974874;28;20043;-74
2021/10/29 02:49:43;;;;;;;16.23;10.75;;;;;;;;;;4973578;28;20042;-74
2021/10/29 02:52:11;;;;;;;13.93;10.00;;;;;;;;;;4974857;28;20121;-75
2021/10/29 02:54:41;;;;;;;14.63;10.50;;;;;;;;;;4973257;28;20053;-76
2021/10/29 02:57:08;;;;;;;16.42;10.25;;;;;;;;;;4974564;28;20051;-77
2021/10/29 02:59:36;;;;;;;17.13;9.75;;;;;;;;;;4973474;28;20061;-74
2021/10/29 03:02:04;;;;;;;16.30;10.13;;;;;;;;;;4973684;28;20400;-74
2021/10/29 03:04:35;;;;;;;13.68;9.80;;;;;;;;;;4974686;28;20047;-74
2021/10/29 03:07:03;;;;;;;18.65;9.35;;;;;;;;;;4974261;28;20049;-76
2021/10/29 03:09:30;;;;;;;11.95;9.32;;;;;;;;;;4974758;28;20508;-77
2021/10/29 03:12:00;;;;;;;15.02;9.07;;;;;;;;;;4974326;28;20035;-74
2021/10/29 03:14:27;;;;;;;17.67;12.77;;;;;;;;;;4974593;28;20041;-74
2021/10/29 03:16:55;;;;;;;14.25;10.02;;;;;;;;;;4974162;28;20050;-74
2021/10/29 03:19:22;;;;;;;15.07;10.85;;;;;;;;;;4974331;28;20066;-74
2021/10/29 03:21:50;;;;;;;14.77;9.55;;;;;;;;;;4957584;28;20046;-74
2021/10/29 03:24:18;;;;;;;11.70;9.32;;;;;;;;;;4974411;28;20078;-75
2021/10/29 03:26:47;;;;;;;11.43;8.77;;;;;;;;;;4956644;28;20404;-74
2021/10/29 03:29:15;;;;;;;11.63;7.93;;;;;;;;;;4974232;28;20043;-77
2021/10/29 03:31:44;;;;;;;13.45;8.55;;;;;;;;;;4974217;28;20047;-74
2021/10/29 03:34:12;;;;;;;10.68;7.85;;;;;;;;;;4974217;28;20046;-74
2021/10/29 03:36:40;;;;;;;11.57;8.38;;;;;;;;;;4956865;28;20417;-74
2021/10/29 03:39:19;;;;;;;12.95;9.10;;;;;;;;;;4974410;28;20503;-77
2021/10/29 03:41:56;;;;;;;11.65;8.15;;;;;;;;;;4956862;28;20057;-76
2021/10/29 03:46:57;;;;;;;11.25;8.45;;;;;;;;;;4977074;28;20049;-78
2021/10/29 03:49:32;;;;;;;9.70;8.65;;;;;;;;;;4978003;28;20105;-74
2021/10/29 03:52:24;;;;;;;11.32;8.15;;;;;;;;;;4978023;28;20395;-74
2021/10/29 03:54:54;;;;;;;11.52;8.27;;;;;;;;;;4978197;28;20394;-77
2021/10/29 03:59:53;;;;;;;10.90;8.02;;;;;;;;;;4977914;28;20039;-74
2021/10/29 04:02:24;;;;;;;14.07;8.75;;;;;;;;;;4960766;28;20050;-74
2021/10/29 04:04:52;;;;;;;11.52;7.93;;;;;;;;;;4961464;28;20138;-77
2021/10/29 04:07:24;;;;;;;12.30;8.20;;;;;;;;;;4960105;28;20514;-74
2021/10/29 04:09:53;;;;;;;11.20;8.10;;;;;;;;;;4977678;28;20039;-74
2021/10/29 04:12:21;;;;;;;11.50;8.15;;;;;;;;;;4977688;28;20101;-77
2021/10/29 04:14:49;;;;;;;13.98;9.05;;;;;;;;;;4960353;28;20404;-76
2021/10/29 04:17:19;;;;;;;12.18;9.35;;;;;;;;;;4977350;28;20047;-76
2021/10/29 04:19:48;;;;;;;16.80;9.65;;;;;;;;;;4977653;28;20074;-74
2021/10/29 04:22:15;;;;;;;18.25;11.30;;;;;;;;;;4960814;28;20039;-77
2021/10/29 04:24:43;;;;;;;17.40;11.85;;;;;;;;;;4964053;28;20143;-76
2021/10/29 04:27:20;;;;;;;20.13;12.63;;;;;;;;;;4977229;28;20547;-74
2021/10/29 04:29:52;;;;;;;16.55;12.13;;;;;;;;;;4977125;28;20043;-74
2021/10/29 04:32:20;;;;;;;20.10;12.63;;;;;;;;;;4975920;28;20081;-77
2021/10/29 04:34:48;;;;;;;17.17;12.02;;;;;;;;;;4977214;28;20039;-77
2021/10/29 04:37:16;;;;;;;21.35;12.93;;;;;;;;;;4977170;28;20066;-74
2021/10/29 04:39:47;;;;;;;22.38;14.73;;;;;;;;;;4976476;28;20043;-74
2021/10/29 04:42:16;;;;;;;21.08;15.07;;;;;;;;;;4977305;28;20045;-75
2021/10/29 04:44:47;;;;;;;31.00;17.65;;;;;;;;;;4977504;28;20047;-74
2021/10/29 04:47:17;;;;;;;24.38;15.45;;;;;;;;;;4976753;28;20126;-74
2021/10/29 04:49:44;;;;;;;23.45;15.15;;;;;;;;;;4975577;28;20054;-74
2021/10/29 04:52:13;;;;;;;21.83;15.00;;;;;;;;;;4976844;28;20444;-74
2021/10/29 04:54:41;;;;;;;21.67;15.32;;;;;;;;;;4975511;28;20047;-74
2021/10/29 04:57:09;;;;;;;19.30;13.98;;;;;;;;;;4976567;28;20125;-75
2021/10/29 04:59:37;;;;;;;22.77;14.98;;;;;;;;;;4977014;28;20059;-77
2021/10/29 05:02:06;;;;;;;19.25;14.77;;;;;;;;;;4977042;28;20042;-77
2021/10/29 05:04:34;;;;;;;25.17;14.80;;;;;;;;;;4975885;28;20117;-77
2021/10/29 05:07:04;;;;;;;15.90;11.40;;;;;;;;;;4975429;28;20053;-74
2021/10/29 05:09:31;;;;;;;17.02;10.93;;;;;;;;;;4976401;28;20041;-74
2021/10/29 05:11:59;;;;;;;16.23;11.18;;;;;;;;;;4976442;28;20477;-77
2021/10/29 05:14:27;;;;;;;21.65;12.30;;;;;;;;;;4976832;28;20055;-77
2021/10/29 05:16:55;;;;;;;18.70;12.60;;;;;;;;;;4975592;28;20496;-74
2021/10/29 05:19:23;;;;;;;17.63;11.98;;;;;;;;;;4976118;28;20053;-74
2021/10/29 05:21:53;;;;;;;20.10;12.30;;;;;;;;;;4975470;28;20045;-74
2021/10/29 05:24:21;;;;;;;19.10;12.68;;;;;;;;;;4976372;28;20075;-76
2021/10/29 05:26:48;;;;;;;20.80;12.30;;;;;;;;;;4976189;28;20039;-75
2021/10/29 05:29:16;;;;;;;24.35;12.45;;;;;;;;;;4958867;28;20415;-77
2021/10/29 05:31:44;;;;;;;23.52;12.98;;;;;;;;;;4976104;28;20035;-74
2021/10/29 05:34:11;;;;;;;22.50;13.25;;;;;;;;;;4958658;28;20070;-77
2021/10/29 05:36:39;;;;;;;18.52;12.23;;;;;;;;;;4976155;28;20408;-74
2021/10/29 05:39:10;;;;;;;18.55;11.98;;;;;;;;;;4975932;28;20050;-76
2021/10/29 05:41:39;;;;;;;19.90;12.70;;;;;;;;;;4959326;28;20062;-77
2021/10/29 05:44:07;;;;;;;17.88;11.98;;;;;;;;;;4958975;28;20058;-74
2021/10/29 05:46:41;;;;;;;19.08;12.18;;;;;;;;;;4976005;28;20073;-73
2021/10/29 05:49:11;;;;;;;18.13;12.77;;;;;;;;;;4975970;28;20465;-77
2021/10/29 05:51:44;;;;;;;21.33;13.27;;;;;;;;;;4958378;28;20134;-74
2021/10/29 05:57:02;;;;;;;23.08;13.52;;;;;;;;;;4976128;28;20070;-82
2021/10/29 05:59:33;;;;;;;21.85;12.73;;;;;;;;;;4975858;28;20043;-77
2021/10/29 06:02:01;;;;;;;20.10;12.05;;;;;;;;;;4943538;28;20053;-76
2021/10/29 06:04:31;;;;;;;17.98;12.73;;;;;;;;;;4942568;28;20070;-80
2021/10/29 06:06:59;;;;;;;21.92;12.80;;;;;;;;;;4958123;28;20057;-80
2021/10/29 06:09:27;;;;;;;21.02;11.90;;;;;;;;;;4975475;28;20045;-76
2021/10/29 06:11:55;;;;;;;20.02;12.07;;;;;;;;;;4975226;28;20042;-76
2021/10/29 06:14:24;;;;;;;22.42;11.68;;;;;;;;;;4958181;28;20480;-76
2021/10/29 06:16:52;;;;;;;18.20;12.45;;;;;;;;;;4957952;28;20049;-76
2021/10/29 06:19:20;;;;;;;17.55;12.95;;;;;;;;;;4957734;28;20045;-76
2021/10/29 06:22:06;;;;;;;21.48;13.75;;;;;;;;;;4958352;28;20050;-77
2021/10/29 06:24:34;;;;;;;20.38;12.77;;;;;;;;;;4960475;28;20516;-77
2021/10/29 06:29:35;;;;;;;20.40;13.45;;;;;;;;;;4973970;28;20039;-77
2021/10/29 06:32:06;;;;;;;21.50;13.07;;;;;;;;;;4975128;28;20045;-75
2021/10/29 06:34:34;;;;;;;20.83;13.00;;;;;;;;;;4973750;28;20063;-77
2021/10/29 06:37:05;;;;;;;17.77;12.38;;;;;;;;;;4975031;28;20500;-79
2021/10/29 06:39:33;;;;;;;15.82;11.77;;;;;;;;;;4973493;28;20078;-75
2021/10/29 06:42:07;;;;;;;16.05;11.68;;;;;;;;;;4973775;28;20049;-78
2021/10/29 07:00:55;;;;;;;13.93;10.30;;;;;;;;;;4979239;28;20042;-79
2021/10/29 07:41:51;;;;;;;9.07;7.20;;;;;;;;;;4992708;28;20133;-78
2021/10/29 07:44:26;;;;;;;9.27;6.85;;;;;;;;;;4991927;28;20125;-78
2021/10/29 07:46:54;;;;;;;8.95;5.40;;;;;;;;;;4992258;28;20046;-78
2021/10/29 07:49:27;;;;;;;7.78;5.45;;;;;;;;;;4976475;28;20060;-81
2021/10/29 07:51:56;;;;;;;9.05;5.63;;;;;;;;;;4992595;28;20492;-79
2021/10/29 07:54:25;;;;;;;7.00;5.63;;;;;;;;;;4992221;28;20049;-79
2021/10/29 07:56:52;;;;;;;7.35;3.88;;;;;;;;;;4985545;28;20587;-78
2021/10/29 07:59:23;;;;;;;6.07;3.75;;;;;;;;;;4958698;28;20145;-77
2021/10/29 08:01:51;;;;;;;3.60;3.25;;;;;;;;;;4989142;28;20050;-75
2021/10/29 08:04:21;;;;;;;3.00;2.60;;;;;;;;;;4992747;28;20038;-77
2021/10/29 08:06:51;;;;;;;2.33;1.90;;;;;;;;;;4991652;28;20571;-76
2021/10/29 08:09:19;;;;;;;4.82;2.63;;;;;;;;;;4992823;28;20053;-75
2021/10/29 08:11:48;;;;;;;2.33;2.08;;;;;;;;;;4992413;28;20038;-76
2021/10/29 08:14:16;;;;;;;2.15;2.05;;;;;;;;;;4990453;28;20125;-76
2021/10/29 08:16:45;;;;;;;2.45;2.25;;;;;;;;;;4991839;28;20129;-75
2021/10/29 08:19:13;;;;;;;2.60;2.15;;;;;;;;;;4991887;28;20057;-76
2021/10/29 08:21:42;;;;;;;2.42;2.22;;;;;;;;;;4993056;28;20042;-75
2021/10/29 08:24:13;;;;;;;2.92;2.28;;;;;;;;;;5061614;23;20055;-75
2021/10/29 08:26:43;;;;;;;2.15;1.80;;;;;;;;;;4946073;28;20043;-77
2021/10/29 08:29:12;;;;;;;2.30;2.10;;;;;;;;;;4972388;28;20456;-75
2021/10/29 08:31:43;;;;;;;2.30;2.10;;;;;;;;;;4954079;28;20496;-74
2021/10/29 08:37:12;;;;;;;4.53;2.50;;;;;;;;;;4973422;28;20133;-75
2021/10/29 08:39:44;;;;;;;6.40;3.17;;;;;;;;;;4956659;28;20527;-76
2021/10/29 08:42:12;;;;;;;8.13;3.88;;;;;;;;;;4958837;28;20054;-79
2021/10/29 08:44:39;;;;;;;4.55;3.10;;;;;;;;;;4942787;28;20061;-78
2021/10/29 08:47:09;;;;;;;3.47;3.13;;;;;;;;;;4958570;28;20046;-77
2021/10/29 08:49:36;;;;;;;4.07;2.90;;;;;;;;;;4954194;28;20431;-79
2021/10/29 08:52:07;;;;;;;4.80;3.28;;;;;;;;;;4971854;28;20055;-80
2021/10/29 08:54:34;;;;;;;4.55;2.17;;;;;;;;;;4933154;29;20055;-82
2021/10/29 08:57:04;;;;;;;2.17;1.40;;;;;;;;;;4937784;29;20039;-80
2021/10/29 08:59:34;;;;;;;1.65;1.35;;;;;;;;;;4939389;29;20462;-82
2021/10/29 09:02:26;;;;;;;2.47;1.35;;;;;;;;;;4920133;29;20394;-80
2021/10/29 09:07:57;;;;;;;2.05;1.50;;;;;;;;;;4937619;29;20059;-78
2021/10/29 09:10:52;;;;;;;1.80;1.55;;;;;;;;;;4954330;29;20058;-76
2021/10/29 09:31:33;;;;;;;2.53;1.45;;;;;;;;;;4940739;28;20046;-81
2021/10/29 09:34:06;;;;;;;1.85;1.08;;;;;;;;;;4975482;28;20385;-81
2021/10/29 09:36:38;;;;;;;2.35;1.40;;;;;;;;;;4957708;28;20046;-79
2021/10/29 09:39:16;;;;;;;1.60;1.35;;;;;;;;;;4957911;28;20046;-79
2021/10/29 09:42:07;;;;;;;2.25;1.23;;;;;;;;;;4974541;28;20134;-80
2021/10/29 09:44:53;;;;;;;2.15;1.10;;;;;;;;;;4972712;28;20460;-79
2021/10/29 09:47:24;;;;;;;2.35;1.35;;;;;;;;;;4974149;28;20058;-78
2021/10/29 09:57:34;;;;;;;2.10;1.35;;;;;;;;;;4956076;28;20389;-80
2021/10/29 10:00:04;;;;;;;1.10;1.02;;;;;;;;;;4956569;28;20047;-76
2021/10/29 10:02:42;;;;;;;1.20;1.10;;;;;;;;;;4973722;28;20559;-79
2021/10/29 10:05:13;;;;;;;2.08;1.30;;;;;;;;;;4956032;28;20047;-80
2021/10/29 10:07:42;;;;;;;0.80;0.80;;;;;;;;;;4934223;29;20051;-80
2021/10/29 10:10:13;;;;;;;1.08;1.00;;;;;;;;;;4921480;29;20043;-77
2021/10/29 10:12:42;;;;;;;1.08;0.95;;;;;;;;;;4953740;29;20046;-78
2021/10/29 10:15:10;;;;;;;1.08;1.08;;;;;;;;;;4953562;29;20485;-78
2021/10/29 10:17:39;;;;;;;2.60;1.10;;;;;;;;;;4936953;29;20138;-77
2021/10/29 10:20:10;;;;;;;1.35;1.13;;;;;;;;;;4937739;29;20047;-79
2021/10/29 10:22:39;;;;;;;1.30;1.20;;;;;;;;;;4937710;29;20075;-80
2021/10/29 10:25:17;;;;;;;0.90;0.90;;;;;;;;;;4937135;29;20055;-78
2021/10/29 10:31:03;;;;;;;1.35;0.88;;;;;;;;;;4936576;29;20158;-82
2021/10/29 10:42:20;;;;;;;2.15;2.03;;;;;;;;;;4953768;29;20143;-79
2021/10/29 10:47:40;;;;;;;1.13;1.02;;;;;;;;;;4936661;29;20051;-79
2021/10/29 10:50:25;;;;;;;1.33;1.20;;;;;;;;;;4953184;29;20126;-78
2021/10/29 10:53:03;;;;;;;1.33;1.05;;;;;;;;;;4953195;29;20066;-79
2021/10/29 10:55:35;;;;;;;1.02;0.98;;;;;;;;;;4935614;29;20043;-80
2021/10/29 10:58:29;;;;;;;1.40;1.30;;;;;;;;;;4952869;29;20126;-79
2021/10/29 11:01:01;;;;;;;1.77;0.98;;;;;;;;;;4935605;29;20584;-79
2021/10/29 11:10:00;;;;;;;1.02;0.88;;;;;;;;;;4838988;29;20069;-79
2021/10/29 11:12:44;;;;;;;2.58;1.20;;;;;;;;;;4876524;29;20151;-80
2021/10/29 11:15:13;;;;;;;1.20;1.10;;;;;;;;;;4876720;29;20061;-79
2021/10/29 11:17:47;;;;;;;0.95;0.95;;;;;;;;;;4861005;29;20527;-79
2021/10/29 11:20:34;;;;;;;1.45;0.98;;;;;;;;;;4861069;29;20076;-80
2021/10/29 11:23:20;;;;;;;1.85;1.13;;;;;;;;;;4861188;29;20124;-79
2021/10/29 11:26:04;;;;;;;2.35;1.30;;;;;;;;;;4875534;29;20057;-79
2021/10/29 11:28:34;;;;;;;1.40;1.30;;;;;;;;;;4890664;29;20048;-79
2021/10/29 11:31:09;;;;;;;1.48;1.38;;;;;;;;;;4879502;29;20151;-79
2021/10/29 11:33:43;;;;;;;2.13;1.50;;;;;;;;;;4895231;29;20068;-79
2021/10/29 11:36:19;;;;;;;1.60;1.50;;;;;;;;;;4879845;29;20045;-80
2021/10/29 11:38:47;;;;;;;1.55;1.45;;;;;;;;;;4895646;29;20501;-80
2021/10/29 11:41:16;;;;;;;1.60;1.50;;;;;;;;;;4940683;28;20039;-79
2021/10/29 11:43:44;;;;;;;1.95;1.63;;;;;;;;;;4956581;28;20039;-79
2021/10/29 11:46:16;;;;;;;4.50;1.30;;;;;;;;;;4973587;28;20050;-79
2021/10/29 11:48:52;;;;;;;2.05;1.60;;;;;;;;;;4956322;28;20042;-79
2021/10/29 11:51:20;;;;;;;5.93;1.58;;;;;;;;;;4956437;28;20034;-78
2021/10/29 11:53:59;;;;;;;1.65;1.55;;;;;;;;;;4956302;28;20130;-77
2021/10/29 11:57:33;;;;;;;1.52;1.42;;;;;;;;;;4956412;28;20598;-80
2021/10/29 12:07:36;;;;;;;2.15;2.05;;;;;;;;;;4957009;28;20056;-79
2021/10/29 12:10:11;;;;;;;2.40;1.77;;;;;;;;;;4959851;28;20070;-80
2021/10/29 12:12:40;;;;;;;2.20;2.00;;;;;;;;;;4959799;28;20047;-80
2021/10/29 12:15:15;;;;;;;1.70;1.60;;;;;;;;;;4943918;28;20566;-80
2021/10/29 12:20:27;;;;;;;4.65;2.00;;;;;;;;;;4977075;28;20046;-81
2021/10/29 12:22:59;;;;;;;6.75;1.90;;;;;;;;;;4977354;28;20046;-80
2021/10/29 12:30:49;;;;;;;2.65;2.17;;;;;;;;;;4953014;29;20048;-80
2021/10/29 12:34:04;;;;;;;2.05;1.95;;;;;;;;;;4938701;29;20119;-80
2021/10/29 12:36:51;;;;;;;1.95;1.85;;;;;;;;;;4935086;29;20463;-79
2021/10/29 12:53:51;;;;;;;2.63;1.85;;;;;;;;;;4956750;29;20134;-80
2021/10/29 13:01:56;;;;;;;9.57;1.80;;;;;;;;;;4956002;29;20123;-80
2021/10/29 13:04:44;;;;;;;1.92;1.55;;;;;;;;;;4937135;29;20051;-81
2021/10/29 13:07:15;;;;;;;1.90;1.55;;;;;;;;;;4937379;29;20044;-79
2021/10/29 13:09:45;;;;;;;3.03;1.67;;;;;;;;;;4937606;29;20062;-80
2021/10/29 13:14:49;;;;;;;3.78;1.70;;;;;;;;;;4937770;29;20050;-79
2021/10/29 13:17:27;;;;;;;3.13;1.70;;;;;;;;;;4936899;29;20082;-81
2021/10/29 13:25:47;;;;;;;3.35;1.48;;;;;;;;;;4954192;29;20050;-80
2021/10/29 13:28:24;;;;;;;2.42;1.50;;;;;;;;;;4937335;29;20062;-81
2021/10/29 13:36:53;;;;;;;2.28;1.38;;;;;;;;;;4954527;29;20528;-79
2021/10/29 13:51:14;;;;;;;2.25;1.60;;;;;;;;;;4932307;29;20139;-80
2021/10/29 14:40:11;;;;;;;2.08;1.80;;;;;;;;;;4954931;29;20054;-80
2021/10/29 14:42:47;;;;;;;2.10;1.40;;;;;;;;;;4940124;29;20047;-79
2021/10/29 15:29:03;;;;;;;3.45;1.60;;;;;;;;;;4893922;29;20044;-76
2021/10/29 15:31:54;;;;;;;5.22;1.88;;;;;;;;;;4877257;29;20052;-77
2021/10/29 15:45:37;;;;;;;1.70;1.15;;;;;;;;;;4897696;29;20481;-79
2021/10/29 15:50:35;;;;;;;2.08;1.50;;;;;;;;;;4897988;29;20056;-79
2021/10/29 15:53:03;;;;;;;2.58;1.45;;;;;;;;;;4897264;29;20051;-79
2021/10/29 15:58:24;;;;;;;2.22;1.48;;;;;;;;;;4954558;29;20114;-79
2021/10/29 16:17:12;;;;;;;3.28;1.88;;;;;;;;;;4936938;29;20094;-80
2021/10/29 16:19:40;;;;;;;2.97;1.88;;;;;;;;;;4925686;29;20564;-79
2021/10/29 16:22:15;;;;;;;2.63;1.70;;;;;;;;;;4937192;29;20043;-79
2021/10/29 16:24:53;;;;;;;2.20;1.50;;;;;;;;;;4939145;29;20629;-76
2021/10/29 16:27:22;;;;;;;2.10;1.67;;;;;;;;;;4943329;29;20043;-76
2021/10/29 16:29:51;;;;;;;1.55;1.45;;;;;;;;;;4946729;29;20047;-76
2021/10/29 16:32:29;;;;;;;3.05;1.73;;;;;;;;;;4955732;29;20074;-76
2021/10/29 16:35:03;;;;;;;6.75;2.20;;;;;;;;;;4937740;29;20516;-77
2021/10/29 16:37:32;;;;;;;2.20;2.00;;;;;;;;;;4925325;29;20513;-77
2021/10/29 16:40:00;;;;;;;2.95;1.90;;;;;;;;;;4936538;29;20050;-77
2021/10/29 16:42:27;;;;;;;3.67;2.42;;;;;;;;;;4918302;29;20043;-78
2021/10/29 16:44:58;;;;;;;3.35;1.90;;;;;;;;;;4936991;29;20355;-78
2021/10/29 16:47:28;;;;;;;3.00;2.30;;;;;;;;;;4920969;29;20044;-78
2021/10/29 16:49:56;;;;;;;4.63;1.90;;;;;;;;;;4938261;29;20067;-78
2021/10/29 16:52:26;;;;;;;3.20;1.80;;;;;;;;;;4937270;29;20485;-76
2021/10/29 16:54:55;;;;;;;2.83;1.90;;;;;;;;;;4920414;29;20036;-78
2021/10/29 16:57:23;;;;;;;4.97;1.77;;;;;;;;;;4920869;29;20047;-78
2021/10/29 16:59:50;;;;;;;1.58;1.48;;;;;;;;;;4938049;29;20059;-77
2021/10/29 17:02:21;;;;;;;1.60;1.50;;;;;;;;;;4921117;29;20413;-77
2021/10/29 17:04:51;;;;;;;2.50;1.42;;;;;;;;;;4937742;29;20040;-77
2021/10/29 17:07:21;;;;;;;2.13;1.30;;;;;;;;;;4920604;29;20039;-76
2021/10/29 17:09:50;;;;;;;1.85;1.30;;;;;;;;;;4931938;29;20070;-78
2021/10/29 17:12:18;;;;;;;1.45;1.35;;;;;;;;;;4938826;29;20130;-77
2021/10/29 17:14:46;;;;;;;3.05;1.60;;;;;;;;;;4955904;29;20131;-77
2021/10/29 17:17:13;;;;;;;1.67;1.58;;;;;;;;;;4956555;29;20126;-78
2021/10/29 17:19:44;;;;;;;2.15;1.63;;;;;;;;;;4939790;29;20039;-77
2021/10/29 17:22:12;;;;;;;2.78;1.38;;;;;;;;;;4923294;29;20039;-78
2021/10/29 17:24:40;;;;;;;1.90;1.60;;;;;;;;;;4938741;29;20106;-75
2021/10/29 17:27:08;;;;;;;4.82;1.67;;;;;;;;;;4938889;29;20070;-77
2021/10/29 17:29:36;;;;;;;2.58;1.60;;;;;;;;;;4956052;29;20045;-77
2021/10/29 17:32:04;;;;;;;1.30;1.20;;;;;;;;;;4956335;29;20039;-77
2021/10/29 17:34:33;;;;;;;3.55;1.20;;;;;;;;;;4939462;29;20039;-79
2021/10/29 17:37:04;;;;;;;1.58;1.20;;;;;;;;;;4956355;29;20090;-78
2021/10/29 17:39:32;;;;;;;1.77;1.10;;;;;;;;;;4938894;29;20043;-77
2021/10/29 17:42:05;;;;;;;1.23;1.10;;;;;;;;;;4924328;29;20070;-78
2021/10/29 17:44:36;;;;;;;1.25;1.20;;;;;;;;;;4956071;28;20100;-78
2021/10/29 17:47:05;;;;;;;1.58;1.10;;;;;;;;;;4955669;29;20047;-76
2021/10/29 17:49:33;;;;;;;1.42;0.90;;;;;;;;;;4938902;29;20050;-76
2021/10/29 17:52:04;;;;;;;1.88;1.10;;;;;;;;;;4954570;29;20497;-77
2021/10/29 17:54:43;;;;;;;2.25;1.20;;;;;;;;;;4938334;29;20110;-76
2021/10/29 17:57:13;;;;;;;2.78;1.42;;;;;;;;;;4937468;29;20047;-75
2021/10/29 17:59:40;;;;;;;1.98;1.35;;;;;;;;;;4936229;29;20042;-75
2021/10/29 18:02:10;;;;;;;1.80;1.50;;;;;;;;;;4954316;29;20497;-77
2021/10/29 18:04:39;;;;;;;2.10;1.30;;;;;;;;;;4954025;28;20051;-74
2021/10/29 18:07:07;;;;;;;2.42;1.33;;;;;;;;;;4953361;29;20074;-75
2021/10/29 18:09:38;;;;;;;1.75;1.38;;;;;;;;;;4952819;29;20094;-75
2021/10/29 18:12:06;;;;;;;3.28;1.42;;;;;;;;;;4952078;29;20050;-74
2021/10/29 18:14:36;;;;;;;4.13;1.73;;;;;;;;;;4934765;29;20043;-74
2021/10/29 18:17:05;;;;;;;2.05;1.50;;;;;;;;;;4951419;29;20043;-76
2021/10/29 18:19:32;;;;;;;4.85;1.60;;;;;;;;;;4934189;29;20517;-76
2021/10/29 18:22:02;;;;;;;1.83;1.40;;;;;;;;;;4949913;28;20047;-76
2021/10/29 18:24:30;;;;;;;1.83;1.40;;;;;;;;;;4933318;29;20120;-73
2021/10/29 18:26:58;;;;;;;1.25;1.10;;;;;;;;;;4915384;29;20058;-74
2021/10/29 18:29:26;;;;;;;2.38;1.25;;;;;;;;;;4933166;29;20044;-75
2021/10/29 18:31:53;;;;;;;1.10;1.10;;;;;;;;;;4942339;29;20071;-73
2021/10/29 18:34:24;;;;;;;1.77;1.40;;;;;;;;;;4951682;29;20051;-76
2021/10/29 18:36:53;;;;;;;1.55;1.05;;;;;;;;;;4935679;29;20051;-77
2021/10/29 18:39:21;;;;;;;1.10;1.00;;;;;;;;;;4935810;29;20052;-74
2021/10/29 18:41:50;;;;;;;3.03;1.20;;;;;;;;;;4935973;29;20047;-77
2021/10/29 18:44:23;;;;;;;1.63;1.25;;;;;;;;;;4953229;29;20122;-75
2021/10/29 18:46:52;;;;;;;1.25;1.20;;;;;;;;;;4946322;29;20040;-75
2021/10/29 18:49:21;;;;;;;4.07;1.50;;;;;;;;;;4934572;29;20047;-78
2021/10/29 18:51:50;;;;;;;1.27;1.17;;;;;;;;;;4915963;29;20461;-74
2021/10/29 18:54:18;;;;;;;1.23;1.08;;;;;;;;;;4936026;29;20043;-78
2021/10/29 18:56:46;;;;;;;2.30;1.40;;;;;;;;;;4935062;29;20051;-75
2021/10/29 18:59:16;;;;;;;1.45;1.30;;;;;;;;;;4934995;29;20424;-75
2021/10/29 19:01:43;;;;;;;0.95;0.93;;;;;;;;;;4931269;29;20048;-77
2021/10/29 19:04:15;;;;;;;2.83;1.40;;;;;;;;;;4951225;29;20047;-74
2021/10/29 19:06:44;;;;;;;1.30;1.20;;;;;;;;;;4935057;29;20054;-75
2021/10/29 19:09:14;;;;;;;1.13;1.08;;;;;;;;;;4935690;29;20043;-74
2021/10/29 19:11:45;;;;;;;1.67;1.30;;;;;;;;;;4936672;29;20507;-74
2021/10/29 19:14:14;;;;;;;3.72;1.50;;;;;;;;;;4936893;29;20046;-75
2021/10/29 19:16:42;;;;;;;1.98;1.30;;;;;;;;;;4936787;29;20047;-74
2021/10/29 19:19:11;;;;;;;1.25;1.10;;;;;;;;;;4935814;29;20047;-73
2021/10/29 19:21:41;;;;;;;1.52;1.20;;;;;;;;;;4935710;29;20118;-74
2021/10/29 19:24:09;;;;;;;1.85;1.00;;;;;;;;;;4936203;29;20051;-74
2021/10/29 19:26:37;;;;;;;1.35;1.20;;;;;;;;;;4953662;29;20043;-76
2021/10/29 19:29:05;;;;;;;1.17;1.08;;;;;;;;;;4953876;29;20039;-73
2021/10/29 19:31:33;;;;;;;1.00;1.00;;;;;;;;;;4953617;29;20043;-76
2021/10/29 19:34:01;;;;;;;1.02;0.90;;;;;;;;;;4951360;29;20039;-76
2021/10/29 19:37:05;;;;;;;1.10;1.00;;;;;;;;;;4920537;29;20165;-77
2021/10/29 19:39:35;;;;;;;0.93;0.85;;;;;;;;;;4928936;29;20050;-77
2021/10/29 19:42:06;;;;;;;2.25;0.75;;;;;;;;;;4933877;29;20240;-74
2021/10/29 19:44:34;;;;;;;0.90;0.85;;;;;;;;;;4933994;29;20049;-74
2021/10/29 19:47:07;;;;;;;1.20;0.80;;;;;;;;;;4951058;29;20836;-77
2021/10/29 19:49:37;;;;;;;4.82;1.10;;;;;;;;;;4934733;29;20550;-77
2021/10/29 19:52:05;;;;;;;2.42;1.10;;;;;;;;;;4918919;29;20051;-76
2021/10/29 19:54:41;;;;;;;1.20;1.00;;;;;;;;;;4934995;29;20418;-78
2021/10/29 19:57:18;;;;;;;1.15;0.90;;;;;;;;;;4934769;29;20054;-77
2021/10/29 19:59:48;;;;;;;1.88;0.93;;;;;;;;;;4935064;29;20135;-77